sensor_id;sensor_type;location;lat;lon;timestamp;P1;durP1;ratioP1;P2;durP2;ratioP2
8663;SDS011;4369;47.842;13.096;2023-03-01T00:02:05;25.67;;;19.03;;
8663;SDS011;4369;47.842;13.096;2023-03-01T00:04:32;29.00;;;18.43;;
8663;SDS011;4369;47.842;13.096;2023-03-01T00:07:00;27.77;;;19.03;;
8663;SDS011;4369;47.842;13.096;2023-03-01T00:09:27;25.37;;;18.83;;
8663;SDS011;4369;47.842;13.096;2023-03-01T00:11:55;28.67;;;19.57;;
8663;SDS011;4369;47.842;13.096;2023-03-01T00:14:22;28.60;;;18.67;;
8663;SDS011;4369;47.842;13.096;2023-03-01T00:16:49;28.00;;;19.40;;
8663;SDS011;4369;47.842;13.096;2023-03-01T00:19:16;29.73;;;20.03;;
8663;SDS011;4369;47.842;13.096;2023-03-01T00:21:45;27.73;;;18.77;;
8663;SDS011;4369;47.842;13.096;2023-03-01T00:24:12;29.57;;;19.10;;
8663;SDS011;4369;47.842;13.096;2023-03-01T00:26:39;28.77;;;19.70;;
8663;SDS011;4369;47.842;13.096;2023-03-01T00:29:07;27.40;;;19.03;;
8663;SDS011;4369;47.842;13.096;2023-03-01T00:31:34;30.70;;;19.87;;
8663;SDS011;4369;47.842;13.096;2023-03-01T00:34:01;31.03;;;19.90;;
8663;SDS011;4369;47.842;13.096;2023-03-01T00:36:30;32.13;;;19.93;;
8663;SDS011;4369;47.842;13.096;2023-03-01T00:38:59;29.23;;;20.17;;
8663;SDS011;4369;47.842;13.096;2023-03-01T00:41:26;31.27;;;20.03;;
8663;SDS011;4369;47.842;13.096;2023-03-01T00:43:53;26.97;;;19.30;;
8663;SDS011;4369;47.842;13.096;2023-03-01T00:46:23;26.63;;;19.00;;
8663;SDS011;4369;47.842;13.096;2023-03-01T00:48:51;29.17;;;19.73;;
8663;SDS011;4369;47.842;13.096;2023-03-01T00:51:19;29.93;;;19.43;;
8663;SDS011;4369;47.842;13.096;2023-03-01T00:53:47;26.43;;;19.83;;
8663;SDS011;4369;47.842;13.096;2023-03-01T00:56:17;28.47;;;18.70;;
8663;SDS011;4369;47.842;13.096;2023-03-01T00:58:44;28.53;;;20.00;;
8663;SDS011;4369;47.842;13.096;2023-03-01T01:01:12;28.73;;;19.80;;
8663;SDS011;4369;47.842;13.096;2023-03-01T01:03:45;28.00;;;20.07;;
8663;SDS011;4369;47.842;13.096;2023-03-01T01:06:13;26.43;;;19.23;;
8663;SDS011;4369;47.842;13.096;2023-03-01T01:08:41;26.70;;;18.87;;
8663;SDS011;4369;47.842;13.096;2023-03-01T01:11:08;29.77;;;19.40;;
8663;SDS011;4369;47.842;13.096;2023-03-01T01:13:35;30.37;;;19.77;;
8663;SDS011;4369;47.842;13.096;2023-03-01T01:16:03;28.77;;;19.57;;
8663;SDS011;4369;47.842;13.096;2023-03-01T01:18:30;29.73;;;19.93;;
8663;SDS011;4369;47.842;13.096;2023-03-01T01:21:02;28.93;;;19.60;;
8663;SDS011;4369;47.842;13.096;2023-03-01T01:23:30;29.43;;;19.60;;
8663;SDS011;4369;47.842;13.096;2023-03-01T01:26:02;30.10;;;20.63;;
8663;SDS011;4369;47.842;13.096;2023-03-01T01:28:30;32.53;;;21.17;;
8663;SDS011;4369;47.842;13.096;2023-03-01T01:30:57;30.07;;;20.23;;
8663;SDS011;4369;47.842;13.096;2023-03-01T01:33:24;29.37;;;19.63;;
8663;SDS011;4369;47.842;13.096;2023-03-01T01:35:51;30.43;;;20.37;;
8663;SDS011;4369;47.842;13.096;2023-03-01T01:38:19;32.30;;;21.10;;
8663;SDS011;4369;47.842;13.096;2023-03-01T01:40:46;32.27;;;20.17;;
8663;SDS011;4369;47.842;13.096;2023-03-01T01:43:16;29.00;;;19.33;;
8663;SDS011;4369;47.842;13.096;2023-03-01T01:45:46;30.50;;;20.83;;
8663;SDS011;4369;47.842;13.096;2023-03-01T01:48:14;28.53;;;18.97;;
8663;SDS011;4369;47.842;13.096;2023-03-01T01:50:44;31.57;;;20.00;;
8663;SDS011;4369;47.842;13.096;2023-03-01T01:53:16;31.03;;;21.10;;
8663;SDS011;4369;47.842;13.096;2023-03-01T01:55:47;26.57;;;19.40;;
8663;SDS011;4369;47.842;13.096;2023-03-01T01:58:18;28.77;;;19.97;;
8663;SDS011;4369;47.842;13.096;2023-03-01T02:00:47;29.33;;;19.33;;
8663;SDS011;4369;47.842;13.096;2023-03-01T02:03:17;27.67;;;19.33;;
8663;SDS011;4369;47.842;13.096;2023-03-01T02:05:50;33.77;;;20.60;;
8663;SDS011;4369;47.842;13.096;2023-03-01T02:08:23;27.57;;;19.40;;
8663;SDS011;4369;47.842;13.096;2023-03-01T02:10:53;30.27;;;20.27;;
8663;SDS011;4369;47.842;13.096;2023-03-01T02:13:21;27.87;;;19.50;;
8663;SDS011;4369;47.842;13.096;2023-03-01T02:15:48;29.10;;;19.93;;
8663;SDS011;4369;47.842;13.096;2023-03-01T02:18:16;31.03;;;19.63;;
8663;SDS011;4369;47.842;13.096;2023-03-01T02:20:48;32.03;;;19.80;;
8663;SDS011;4369;47.842;13.096;2023-03-01T02:23:26;31.50;;;19.10;;
8663;SDS011;4369;47.842;13.096;2023-03-01T02:25:55;30.10;;;20.13;;
8663;SDS011;4369;47.842;13.096;2023-03-01T02:28:30;28.57;;;19.90;;
8663;SDS011;4369;47.842;13.096;2023-03-01T02:30:57;27.13;;;19.20;;
8663;SDS011;4369;47.842;13.096;2023-03-01T02:33:42;27.20;;;18.93;;
8663;SDS011;4369;47.842;13.096;2023-03-01T02:36:14;31.63;;;20.00;;
8663;SDS011;4369;47.842;13.096;2023-03-01T02:38:44;29.03;;;19.57;;
8663;SDS011;4369;47.842;13.096;2023-03-01T02:41:13;29.70;;;20.00;;
8663;SDS011;4369;47.842;13.096;2023-03-01T02:43:43;28.47;;;20.07;;
8663;SDS011;4369;47.842;13.096;2023-03-01T02:46:14;27.57;;;19.37;;
8663;SDS011;4369;47.842;13.096;2023-03-01T02:48:43;29.17;;;19.57;;
8663;SDS011;4369;47.842;13.096;2023-03-01T02:51:21;27.10;;;18.77;;
8663;SDS011;4369;47.842;13.096;2023-03-01T02:54:02;31.37;;;20.13;;
8663;SDS011;4369;47.842;13.096;2023-03-01T02:56:36;30.00;;;18.90;;
8663;SDS011;4369;47.842;13.096;2023-03-01T02:59:04;30.40;;;20.43;;
8663;SDS011;4369;47.842;13.096;2023-03-01T03:01:32;31.03;;;19.73;;
8663;SDS011;4369;47.842;13.096;2023-03-01T03:04:05;30.40;;;19.67;;
8663;SDS011;4369;47.842;13.096;2023-03-01T03:06:32;35.10;;;20.47;;
8663;SDS011;4369;47.842;13.096;2023-03-01T03:08:59;30.50;;;20.70;;
8663;SDS011;4369;47.842;13.096;2023-03-01T03:11:26;31.47;;;19.87;;
8663;SDS011;4369;47.842;13.096;2023-03-01T03:13:54;33.77;;;20.93;;
8663;SDS011;4369;47.842;13.096;2023-03-01T03:16:24;30.07;;;20.37;;
8663;SDS011;4369;47.842;13.096;2023-03-01T03:18:51;29.40;;;20.17;;
8663;SDS011;4369;47.842;13.096;2023-03-01T03:21:17;35.23;;;21.07;;
8663;SDS011;4369;47.842;13.096;2023-03-01T03:23:44;30.80;;;20.53;;
8663;SDS011;4369;47.842;13.096;2023-03-01T03:26:11;30.87;;;20.60;;
8663;SDS011;4369;47.842;13.096;2023-03-01T03:28:40;28.43;;;19.53;;
8663;SDS011;4369;47.842;13.096;2023-03-01T03:31:07;32.40;;;19.90;;
8663;SDS011;4369;47.842;13.096;2023-03-01T03:33:35;31.53;;;20.43;;
8663;SDS011;4369;47.842;13.096;2023-03-01T03:36:02;28.20;;;18.63;;
8663;SDS011;4369;47.842;13.096;2023-03-01T03:38:30;32.43;;;20.27;;
8663;SDS011;4369;47.842;13.096;2023-03-01T03:41:00;31.27;;;20.10;;
8663;SDS011;4369;47.842;13.096;2023-03-01T03:43:29;31.60;;;20.83;;
8663;SDS011;4369;47.842;13.096;2023-03-01T03:45:56;30.70;;;20.33;;
8663;SDS011;4369;47.842;13.096;2023-03-01T03:48:23;32.17;;;20.87;;
8663;SDS011;4369;47.842;13.096;2023-03-01T03:50:52;32.47;;;20.63;;
8663;SDS011;4369;47.842;13.096;2023-03-01T03:53:21;30.43;;;20.17;;
8663;SDS011;4369;47.842;13.096;2023-03-01T03:55:48;34.73;;;21.90;;
8663;SDS011;4369;47.842;13.096;2023-03-01T03:58:17;30.80;;;21.10;;
8663;SDS011;4369;47.842;13.096;2023-03-01T04:00:46;32.83;;;21.33;;
8663;SDS011;4369;47.842;13.096;2023-03-01T04:03:14;29.77;;;20.87;;
8663;SDS011;4369;47.842;13.096;2023-03-01T04:05:44;32.70;;;21.07;;
8663;SDS011;4369;47.842;13.096;2023-03-01T04:08:13;32.87;;;21.37;;
8663;SDS011;4369;47.842;13.096;2023-03-01T04:10:41;34.77;;;21.13;;
8663;SDS011;4369;47.842;13.096;2023-03-01T04:13:10;33.43;;;22.00;;
8663;SDS011;4369;47.842;13.096;2023-03-01T04:15:38;34.07;;;22.53;;
8663;SDS011;4369;47.842;13.096;2023-03-01T04:18:06;32.80;;;21.73;;
8663;SDS011;4369;47.842;13.096;2023-03-01T04:20:34;33.40;;;22.23;;
8663;SDS011;4369;47.842;13.096;2023-03-01T04:23:02;31.60;;;20.90;;
8663;SDS011;4369;47.842;13.096;2023-03-01T04:25:38;36.07;;;22.37;;
8663;SDS011;4369;47.842;13.096;2023-03-01T04:28:06;34.93;;;22.17;;
8663;SDS011;4369;47.842;13.096;2023-03-01T04:30:34;30.67;;;21.63;;
8663;SDS011;4369;47.842;13.096;2023-03-01T04:33:02;32.43;;;21.93;;
8663;SDS011;4369;47.842;13.096;2023-03-01T04:35:30;32.10;;;21.40;;
8663;SDS011;4369;47.842;13.096;2023-03-01T04:37:57;33.33;;;21.70;;
8663;SDS011;4369;47.842;13.096;2023-03-01T04:40:24;35.83;;;21.70;;
8663;SDS011;4369;47.842;13.096;2023-03-01T04:42:53;36.23;;;23.30;;
8663;SDS011;4369;47.842;13.096;2023-03-01T04:45:20;31.33;;;21.07;;
8663;SDS011;4369;47.842;13.096;2023-03-01T04:47:46;33.40;;;22.53;;
8663;SDS011;4369;47.842;13.096;2023-03-01T04:50:15;34.40;;;22.63;;
8663;SDS011;4369;47.842;13.096;2023-03-01T04:52:45;35.88;;;27.05;;
8663;SDS011;4369;47.842;13.096;2023-03-01T04:55:13;33.03;;;23.40;;
8663;SDS011;4369;47.842;13.096;2023-03-01T04:57:40;33.80;;;22.47;;
8663;SDS011;4369;47.842;13.096;2023-03-01T05:00:09;32.80;;;22.33;;
8663;SDS011;4369;47.842;13.096;2023-03-01T05:02:46;32.20;;;21.37;;
8663;SDS011;4369;47.842;13.096;2023-03-01T05:05:18;34.47;;;21.47;;
8663;SDS011;4369;47.842;13.096;2023-03-01T05:07:46;32.17;;;20.73;;
8663;SDS011;4369;47.842;13.096;2023-03-01T05:10:13;35.17;;;22.87;;
8663;SDS011;4369;47.842;13.096;2023-03-01T05:12:41;35.30;;;22.10;;
8663;SDS011;4369;47.842;13.096;2023-03-01T05:15:09;34.77;;;21.17;;
8663;SDS011;4369;47.842;13.096;2023-03-01T05:17:36;31.80;;;22.17;;
8663;SDS011;4369;47.842;13.096;2023-03-01T05:20:03;33.93;;;21.67;;
8663;SDS011;4369;47.842;13.096;2023-03-01T05:22:33;34.53;;;22.07;;
8663;SDS011;4369;47.842;13.096;2023-03-01T05:25:00;37.47;;;21.53;;
8663;SDS011;4369;47.842;13.096;2023-03-01T05:27:28;35.83;;;23.23;;
8663;SDS011;4369;47.842;13.096;2023-03-01T05:29:54;34.47;;;22.30;;
8663;SDS011;4369;47.842;13.096;2023-03-01T05:32:23;31.20;;;21.57;;
8663;SDS011;4369;47.842;13.096;2023-03-01T05:34:50;36.37;;;22.50;;
8663;SDS011;4369;47.842;13.096;2023-03-01T05:37:20;32.33;;;22.80;;
8663;SDS011;4369;47.842;13.096;2023-03-01T05:39:46;35.10;;;22.37;;
8663;SDS011;4369;47.842;13.096;2023-03-01T05:42:15;40.47;;;23.83;;
8663;SDS011;4369;47.842;13.096;2023-03-01T05:44:42;36.43;;;24.20;;
8663;SDS011;4369;47.842;13.096;2023-03-01T05:47:09;39.23;;;24.07;;
8663;SDS011;4369;47.842;13.096;2023-03-01T05:49:37;42.33;;;24.47;;
8663;SDS011;4369;47.842;13.096;2023-03-01T05:52:04;37.47;;;24.27;;
8663;SDS011;4369;47.842;13.096;2023-03-01T05:54:31;42.53;;;25.73;;
8663;SDS011;4369;47.842;13.096;2023-03-01T05:56:58;36.93;;;24.57;;
8663;SDS011;4369;47.842;13.096;2023-03-01T05:59:25;39.00;;;24.60;;
8663;SDS011;4369;47.842;13.096;2023-03-01T06:01:54;38.73;;;24.93;;
8663;SDS011;4369;47.842;13.096;2023-03-01T06:04:21;39.80;;;27.07;;
8663;SDS011;4369;47.842;13.096;2023-03-01T06:06:49;39.20;;;25.80;;
8663;SDS011;4369;47.842;13.096;2023-03-01T06:09:16;41.27;;;26.40;;
8663;SDS011;4369;47.842;13.096;2023-03-01T06:11:42;43.73;;;26.77;;
8663;SDS011;4369;47.842;13.096;2023-03-01T06:14:09;37.77;;;24.70;;
8663;SDS011;4369;47.842;13.096;2023-03-01T06:16:39;41.77;;;25.93;;
8663;SDS011;4369;47.842;13.096;2023-03-01T06:19:06;36.60;;;24.47;;
8663;SDS011;4369;47.842;13.096;2023-03-01T06:21:33;38.27;;;25.63;;
8663;SDS011;4369;47.842;13.096;2023-03-01T06:24:01;40.17;;;26.93;;
8663;SDS011;4369;47.842;13.096;2023-03-01T06:26:28;38.57;;;25.60;;
8663;SDS011;4369;47.842;13.096;2023-03-01T06:28:54;34.50;;;25.30;;
8663;SDS011;4369;47.842;13.096;2023-03-01T06:31:21;39.37;;;25.53;;
8663;SDS011;4369;47.842;13.096;2023-03-01T06:33:48;39.67;;;25.50;;
8663;SDS011;4369;47.842;13.096;2023-03-01T06:36:15;41.17;;;26.67;;
8663;SDS011;4369;47.842;13.096;2023-03-01T06:38:43;38.47;;;23.30;;
8663;SDS011;4369;47.842;13.096;2023-03-01T06:41:12;37.90;;;24.37;;
8663;SDS011;4369;47.842;13.096;2023-03-01T06:43:38;39.40;;;25.03;;
8663;SDS011;4369;47.842;13.096;2023-03-01T06:46:05;38.03;;;25.20;;
8663;SDS011;4369;47.842;13.096;2023-03-01T06:48:32;36.17;;;24.17;;
8663;SDS011;4369;47.842;13.096;2023-03-01T06:50:59;43.97;;;26.77;;
8663;SDS011;4369;47.842;13.096;2023-03-01T06:53:27;40.37;;;26.07;;
8663;SDS011;4369;47.842;13.096;2023-03-01T06:55:54;50.43;;;31.97;;
8663;SDS011;4369;47.842;13.096;2023-03-01T06:58:22;61.67;;;41.07;;
8663;SDS011;4369;47.842;13.096;2023-03-01T07:00:49;55.30;;;35.47;;
8663;SDS011;4369;47.842;13.096;2023-03-01T07:03:16;43.90;;;28.90;;
8663;SDS011;4369;47.842;13.096;2023-03-01T07:05:43;48.03;;;28.17;;
8663;SDS011;4369;47.842;13.096;2023-03-01T07:08:10;49.63;;;28.90;;
8663;SDS011;4369;47.842;13.096;2023-03-01T07:10:37;45.40;;;27.87;;
8663;SDS011;4369;47.842;13.096;2023-03-01T07:13:04;39.00;;;26.13;;
8663;SDS011;4369;47.842;13.096;2023-03-01T07:15:33;45.20;;;26.83;;
8663;SDS011;4369;47.842;13.096;2023-03-01T07:18:00;46.83;;;27.47;;
8663;SDS011;4369;47.842;13.096;2023-03-01T07:20:27;45.23;;;27.77;;
8663;SDS011;4369;47.842;13.096;2023-03-01T07:22:54;40.07;;;26.33;;
8663;SDS011;4369;47.842;13.096;2023-03-01T07:25:23;47.37;;;25.87;;
8663;SDS011;4369;47.842;13.096;2023-03-01T07:27:50;40.13;;;25.17;;
8663;SDS011;4369;47.842;13.096;2023-03-01T07:30:18;43.47;;;25.57;;
8663;SDS011;4369;47.842;13.096;2023-03-01T07:32:47;41.73;;;26.37;;
8663;SDS011;4369;47.842;13.096;2023-03-01T07:35:14;37.37;;;24.23;;
8663;SDS011;4369;47.842;13.096;2023-03-01T07:37:40;44.87;;;26.33;;
8663;SDS011;4369;47.842;13.096;2023-03-01T07:40:08;41.03;;;26.47;;
8663;SDS011;4369;47.842;13.096;2023-03-01T07:42:35;39.70;;;24.90;;
8663;SDS011;4369;47.842;13.096;2023-03-01T07:45:02;38.40;;;24.23;;
8663;SDS011;4369;47.842;13.096;2023-03-01T07:47:30;36.27;;;23.30;;
8663;SDS011;4369;47.842;13.096;2023-03-01T07:49:59;41.87;;;24.57;;
8663;SDS011;4369;47.842;13.096;2023-03-01T07:52:27;33.53;;;22.70;;
8663;SDS011;4369;47.842;13.096;2023-03-01T07:54:54;31.30;;;21.43;;
8663;SDS011;4369;47.842;13.096;2023-03-01T07:57:21;35.23;;;22.27;;
8663;SDS011;4369;47.842;13.096;2023-03-01T07:59:48;33.30;;;21.93;;
8663;SDS011;4369;47.842;13.096;2023-03-01T08:02:14;32.83;;;21.80;;
8663;SDS011;4369;47.842;13.096;2023-03-01T08:04:43;33.47;;;21.67;;
8663;SDS011;4369;47.842;13.096;2023-03-01T08:07:11;32.13;;;20.87;;
8663;SDS011;4369;47.842;13.096;2023-03-01T08:09:38;32.17;;;21.93;;
8663;SDS011;4369;47.842;13.096;2023-03-01T08:12:05;35.67;;;22.87;;
8663;SDS011;4369;47.842;13.096;2023-03-01T08:14:32;31.80;;;21.17;;
8663;SDS011;4369;47.842;13.096;2023-03-01T08:16:59;32.73;;;21.80;;
8663;SDS011;4369;47.842;13.096;2023-03-01T08:19:27;33.43;;;21.23;;
8663;SDS011;4369;47.842;13.096;2023-03-01T08:21:54;26.73;;;19.20;;
8663;SDS011;4369;47.842;13.096;2023-03-01T08:24:24;31.63;;;19.20;;
8663;SDS011;4369;47.842;13.096;2023-03-01T08:26:51;31.47;;;19.07;;
8663;SDS011;4369;47.842;13.096;2023-03-01T08:29:18;31.33;;;20.13;;
8663;SDS011;4369;47.842;13.096;2023-03-01T08:31:45;30.70;;;19.40;;
8663;SDS011;4369;47.842;13.096;2023-03-01T08:34:13;31.60;;;18.70;;
8663;SDS011;4369;47.842;13.096;2023-03-01T08:36:41;31.27;;;20.30;;
8663;SDS011;4369;47.842;13.096;2023-03-01T08:39:10;28.27;;;19.13;;
8663;SDS011;4369;47.842;13.096;2023-03-01T08:41:40;29.40;;;19.77;;
8663;SDS011;4369;47.842;13.096;2023-03-01T08:44:07;30.70;;;20.00;;
8663;SDS011;4369;47.842;13.096;2023-03-01T08:46:36;29.07;;;19.73;;
8663;SDS011;4369;47.842;13.096;2023-03-01T08:49:04;33.00;;;20.37;;
8663;SDS011;4369;47.842;13.096;2023-03-01T08:51:31;30.50;;;19.50;;
8663;SDS011;4369;47.842;13.096;2023-03-01T08:54:01;34.93;;;19.63;;
8663;SDS011;4369;47.842;13.096;2023-03-01T08:56:28;34.00;;;20.50;;
8663;SDS011;4369;47.842;13.096;2023-03-01T08:58:57;30.70;;;19.73;;
8663;SDS011;4369;47.842;13.096;2023-03-01T09:01:24;28.93;;;19.73;;
8663;SDS011;4369;47.842;13.096;2023-03-01T09:03:51;28.67;;;19.23;;
8663;SDS011;4369;47.842;13.096;2023-03-01T09:06:18;26.57;;;18.37;;
8663;SDS011;4369;47.842;13.096;2023-03-01T09:08:46;27.13;;;18.53;;
8663;SDS011;4369;47.842;13.096;2023-03-01T09:11:14;31.33;;;22.03;;
8663;SDS011;4369;47.842;13.096;2023-03-01T09:13:43;35.27;;;23.33;;
8663;SDS011;4369;47.842;13.096;2023-03-01T09:16:12;33.87;;;22.47;;
8663;SDS011;4369;47.842;13.096;2023-03-01T09:18:40;32.80;;;21.53;;
8663;SDS011;4369;47.842;13.096;2023-03-01T09:21:07;36.50;;;23.20;;
8663;SDS011;4369;47.842;13.096;2023-03-01T09:23:36;29.57;;;21.50;;
8663;SDS011;4369;47.842;13.096;2023-03-01T09:26:05;33.23;;;21.97;;
8663;SDS011;4369;47.842;13.096;2023-03-01T09:28:33;32.30;;;20.97;;
8663;SDS011;4369;47.842;13.096;2023-03-01T09:31:00;32.00;;;21.90;;
8663;SDS011;4369;47.842;13.096;2023-03-01T09:33:29;31.43;;;20.90;;
8663;SDS011;4369;47.842;13.096;2023-03-01T09:35:58;32.00;;;21.90;;
8663;SDS011;4369;47.842;13.096;2023-03-01T09:38:25;31.70;;;21.73;;
8663;SDS011;4369;47.842;13.096;2023-03-01T09:40:52;29.53;;;20.63;;
8663;SDS011;4369;47.842;13.096;2023-03-01T09:43:21;32.87;;;21.23;;
8663;SDS011;4369;47.842;13.096;2023-03-01T09:45:55;29.00;;;20.03;;
8663;SDS011;4369;47.842;13.096;2023-03-01T09:48:26;28.00;;;19.50;;
8663;SDS011;4369;47.842;13.096;2023-03-01T09:50:58;28.47;;;19.73;;
8663;SDS011;4369;47.842;13.096;2023-03-01T09:53:30;29.40;;;20.63;;
8663;SDS011;4369;47.842;13.096;2023-03-01T09:56:01;28.53;;;20.30;;
8663;SDS011;4369;47.842;13.096;2023-03-01T09:58:33;29.73;;;19.77;;
8663;SDS011;4369;47.842;13.096;2023-03-01T10:01:10;28.47;;;19.00;;
8663;SDS011;4369;47.842;13.096;2023-03-01T10:03:55;26.53;;;18.97;;
8663;SDS011;4369;47.842;13.096;2023-03-01T10:06:31;29.07;;;19.53;;
8663;SDS011;4369;47.842;13.096;2023-03-01T10:08:58;28.30;;;20.00;;
8663;SDS011;4369;47.842;13.096;2023-03-01T10:11:30;29.50;;;19.90;;
8663;SDS011;4369;47.842;13.096;2023-03-01T10:14:01;31.20;;;21.27;;
8663;SDS011;4369;47.842;13.096;2023-03-01T10:16:34;27.03;;;19.53;;
8663;SDS011;4369;47.842;13.096;2023-03-01T10:19:09;32.03;;;21.13;;
8663;SDS011;4369;47.842;13.096;2023-03-01T10:21:41;31.43;;;20.97;;
8663;SDS011;4369;47.842;13.096;2023-03-01T10:24:12;33.83;;;22.13;;
8663;SDS011;4369;47.842;13.096;2023-03-01T10:26:48;29.57;;;20.43;;
8663;SDS011;4369;47.842;13.096;2023-03-01T10:29:21;33.57;;;20.77;;
8663;SDS011;4369;47.842;13.096;2023-03-01T10:31:52;30.40;;;20.63;;
8663;SDS011;4369;47.842;13.096;2023-03-01T10:34:22;28.27;;;20.57;;
8663;SDS011;4369;47.842;13.096;2023-03-01T10:36:55;28.97;;;20.87;;
8663;SDS011;4369;47.842;13.096;2023-03-01T10:39:24;28.03;;;21.23;;
8663;SDS011;4369;47.842;13.096;2023-03-01T10:41:53;28.60;;;20.70;;
8663;SDS011;4369;47.842;13.096;2023-03-01T10:44:35;30.37;;;20.57;;
8663;SDS011;4369;47.842;13.096;2023-03-01T10:47:05;28.33;;;20.23;;
8663;SDS011;4369;47.842;13.096;2023-03-01T10:49:39;28.43;;;20.80;;
8663;SDS011;4369;47.842;13.096;2023-03-01T10:52:23;28.70;;;19.90;;
8663;SDS011;4369;47.842;13.096;2023-03-01T10:54:52;30.27;;;21.13;;
8663;SDS011;4369;47.842;13.096;2023-03-01T10:57:24;27.10;;;20.17;;
8663;SDS011;4369;47.842;13.096;2023-03-01T11:00:00;29.70;;;21.13;;
8663;SDS011;4369;47.842;13.096;2023-03-01T11:02:41;28.87;;;21.20;;
8663;SDS011;4369;47.842;13.096;2023-03-01T11:05:16;31.10;;;21.47;;
8663;SDS011;4369;47.842;13.096;2023-03-01T11:07:46;28.60;;;21.23;;
8663;SDS011;4369;47.842;13.096;2023-03-01T11:10:16;29.73;;;22.10;;
8663;SDS011;4369;47.842;13.096;2023-03-01T11:12:44;31.20;;;21.83;;
8663;SDS011;4369;47.842;13.096;2023-03-01T11:15:19;28.80;;;20.43;;
8663;SDS011;4369;47.842;13.096;2023-03-01T11:17:49;27.70;;;21.33;;
8663;SDS011;4369;47.842;13.096;2023-03-01T11:20:20;30.63;;;21.67;;
8663;SDS011;4369;47.842;13.096;2023-03-01T11:22:52;29.60;;;22.17;;
8663;SDS011;4369;47.842;13.096;2023-03-01T11:25:22;28.30;;;21.27;;
8663;SDS011;4369;47.842;13.096;2023-03-01T11:27:51;29.13;;;20.77;;
8663;SDS011;4369;47.842;13.096;2023-03-01T11:30:20;29.17;;;21.43;;
8663;SDS011;4369;47.842;13.096;2023-03-01T11:32:53;28.50;;;21.80;;
8663;SDS011;4369;47.842;13.096;2023-03-01T11:35:28;29.90;;;21.33;;
8663;SDS011;4369;47.842;13.096;2023-03-01T11:37:59;28.53;;;22.47;;
8663;SDS011;4369;47.842;13.096;2023-03-01T11:40:37;27.90;;;20.67;;
8663;SDS011;4369;47.842;13.096;2023-03-01T11:43:10;29.23;;;22.27;;
8663;SDS011;4369;47.842;13.096;2023-03-01T11:45:46;26.70;;;21.17;;
8663;SDS011;4369;47.842;13.096;2023-03-01T11:48:33;27.27;;;20.67;;
8663;SDS011;4369;47.842;13.096;2023-03-01T11:51:12;27.67;;;19.50;;
8663;SDS011;4369;47.842;13.096;2023-03-01T11:53:50;23.87;;;20.87;;
8663;SDS011;4369;47.842;13.096;2023-03-01T11:56:26;24.00;;;20.87;;
8663;SDS011;4369;47.842;13.096;2023-03-01T12:01:52;24.20;;;21.58;;
8663;SDS011;4369;47.842;13.096;2023-03-01T12:07:42;24.30;;;21.70;;
8663;SDS011;4369;47.842;13.096;2023-03-01T12:10:19;23.50;;;21.00;;
8663;SDS011;4369;47.842;13.096;2023-03-01T12:13:12;23.77;;;21.23;;
8663;SDS011;4369;47.842;13.096;2023-03-01T12:16:06;24.23;;;21.83;;
8663;SDS011;4369;47.842;13.096;2023-03-01T12:18:50;23.42;;;21.02;;
8663;SDS011;4369;47.842;13.096;2023-03-01T12:21:40;23.58;;;21.23;;
8663;SDS011;4369;47.842;13.096;2023-03-01T12:24:27;21.95;;;19.85;;
8663;SDS011;4369;47.842;13.096;2023-03-01T12:27:13;23.92;;;21.40;;
8663;SDS011;4369;47.842;13.096;2023-03-01T12:29:53;22.80;;;20.50;;
8663;SDS011;4369;47.842;13.096;2023-03-01T12:32:34;22.83;;;20.60;;
8663;SDS011;4369;47.842;13.096;2023-03-01T12:35:16;22.45;;;20.42;;
8663;SDS011;4369;47.842;13.096;2023-03-01T12:37:55;22.13;;;20.02;;
8663;SDS011;4369;47.842;13.096;2023-03-01T12:40:36;22.92;;;20.52;;
8663;SDS011;4369;47.842;13.096;2023-03-01T12:43:22;22.23;;;20.10;;
8663;SDS011;4369;47.842;13.096;2023-03-01T12:48:48;21.48;;;19.58;;
8663;SDS011;4369;47.842;13.096;2023-03-01T12:51:26;22.27;;;20.17;;
8663;SDS011;4369;47.842;13.096;2023-03-01T12:53:56;21.52;;;19.42;;
8663;SDS011;4369;47.842;13.096;2023-03-01T12:56:28;22.10;;;20.10;;
8663;SDS011;4369;47.842;13.096;2023-03-01T12:59:00;21.15;;;19.25;;
8663;SDS011;4369;47.842;13.096;2023-03-01T13:01:40;21.52;;;19.27;;
8663;SDS011;4369;47.842;13.096;2023-03-01T13:04:16;23.20;;;20.90;;
8663;SDS011;4369;47.842;13.096;2023-03-01T13:06:54;21.92;;;20.00;;
8663;SDS011;4369;47.842;13.096;2023-03-01T13:09:29;21.65;;;19.60;;
8663;SDS011;4369;47.842;13.096;2023-03-01T13:12:14;21.33;;;19.33;;
8663;SDS011;4369;47.842;13.096;2023-03-01T13:15:26;22.52;;;20.13;;
8663;SDS011;4369;47.842;13.096;2023-03-01T13:17:55;21.13;;;19.17;;
8663;SDS011;4369;47.842;13.096;2023-03-01T13:20:25;20.67;;;18.77;;
8663;SDS011;4369;47.842;13.096;2023-03-01T13:23:00;20.33;;;18.13;;
8663;SDS011;4369;47.842;13.096;2023-03-01T13:28:47;20.23;;;18.52;;
8663;SDS011;4369;47.842;13.096;2023-03-01T13:43:25;20.58;;;18.73;;
8663;SDS011;4369;47.842;13.096;2023-03-01T13:45:57;21.98;;;19.75;;
8663;SDS011;4369;47.842;13.096;2023-03-01T13:48:26;21.17;;;19.17;;
8663;SDS011;4369;47.842;13.096;2023-03-01T13:50:55;20.38;;;18.38;;
8663;SDS011;4369;47.842;13.096;2023-03-01T13:53:26;21.52;;;19.55;;
8663;SDS011;4369;47.842;13.096;2023-03-01T13:55:58;21.40;;;19.42;;
8663;SDS011;4369;47.842;13.096;2023-03-01T13:58:28;21.52;;;19.27;;
8663;SDS011;4369;47.842;13.096;2023-03-01T14:00:59;22.70;;;20.50;;
8663;SDS011;4369;47.842;13.096;2023-03-01T14:03:28;22.30;;;20.10;;
8663;SDS011;4369;47.842;13.096;2023-03-01T14:05:58;21.70;;;19.65;;
8663;SDS011;4369;47.842;13.096;2023-03-01T14:08:31;24.23;;;21.83;;
8663;SDS011;4369;47.842;13.096;2023-03-01T14:11:03;23.20;;;20.90;;
8663;SDS011;4369;47.842;13.096;2023-03-01T14:13:52;22.40;;;20.05;;
8663;SDS011;4369;47.842;13.096;2023-03-01T14:16:34;24.40;;;21.90;;
8663;SDS011;4369;47.842;13.096;2023-03-01T14:19:12;23.60;;;21.20;;
8663;SDS011;4369;47.842;13.096;2023-03-01T14:21:43;24.20;;;21.63;;
8663;SDS011;4369;47.842;13.096;2023-03-01T14:24:16;25.30;;;20.87;;
8663;SDS011;4369;47.842;13.096;2023-03-01T14:26:46;23.10;;;20.60;;
8663;SDS011;4369;47.842;13.096;2023-03-01T14:29:25;23.70;;;20.63;;
8663;SDS011;4369;47.842;13.096;2023-03-01T14:31:55;22.43;;;20.03;;
8663;SDS011;4369;47.842;13.096;2023-03-01T14:34:22;21.10;;;18.57;;
8663;SDS011;4369;47.842;13.096;2023-03-01T14:36:50;22.77;;;18.50;;
8663;SDS011;4369;47.842;13.096;2023-03-01T14:39:17;21.40;;;19.17;;
8663;SDS011;4369;47.842;13.096;2023-03-01T14:41:50;20.83;;;18.63;;
8663;SDS011;4369;47.842;13.096;2023-03-01T14:44:19;22.47;;;19.67;;
8663;SDS011;4369;47.842;13.096;2023-03-01T14:46:51;24.80;;;20.07;;
8663;SDS011;4369;47.842;13.096;2023-03-01T14:49:21;23.23;;;20.50;;
8663;SDS011;4369;47.842;13.096;2023-03-01T14:51:52;24.27;;;19.83;;
8663;SDS011;4369;47.842;13.096;2023-03-01T14:54:24;25.07;;;18.60;;
8663;SDS011;4369;47.842;13.096;2023-03-01T14:56:53;26.07;;;20.43;;
8663;SDS011;4369;47.842;13.096;2023-03-01T14:59:23;23.27;;;18.87;;
8663;SDS011;4369;47.842;13.096;2023-03-01T15:01:51;23.23;;;18.40;;
8663;SDS011;4369;47.842;13.096;2023-03-01T15:04:23;25.20;;;19.33;;
8663;SDS011;4369;47.842;13.096;2023-03-01T15:06:52;22.30;;;18.57;;
8663;SDS011;4369;47.842;13.096;2023-03-01T15:09:20;27.43;;;19.67;;
8663;SDS011;4369;47.842;13.096;2023-03-01T15:11:48;23.00;;;19.43;;
8663;SDS011;4369;47.842;13.096;2023-03-01T15:14:28;25.03;;;20.10;;
8663;SDS011;4369;47.842;13.096;2023-03-01T15:17:05;24.40;;;18.47;;